Time;durP1;ratioP1;P1;durP2;ratioP2;P2;SDS_P1;SDS_P2;PMS_P1;PMS_P2;Temp;Humidity;BMP_temperature;BMP_pressure;BME280_temperature;BME280_humidity;BME280_pressure;Samples;Min_cycle;Max_cycle;Signal;HPM_P1;HPM_P2
2024/03/03 00:00:30;;;;;;;11.40;8.27;;;;;;;3.74;99.30;102640.69;5047142;28;20140;-70
2024/03/03 00:02:55;;;;;;;11.47;8.83;;;;;;;3.81;99.35;102651.84;5037002;28;20307;-68
2024/03/03 00:05:21;;;;;;;14.80;8.17;;;;;;;3.86;99.22;102665.66;5042713;28;20045;-70
2024/03/03 00:07:47;;;;;;;12.37;8.13;;;;;;;3.83;99.35;102646.50;5040846;28;20035;-65
2024/03/03 00:10:14;;;;;;;12.83;9.50;;;;;;;3.68;98.41;102625.19;5043239;28;20038;-68
2024/03/03 00:12:39;;;;;;;16.53;9.70;;;;;;;3.82;98.66;102653.53;5048343;28;20291;-69
2024/03/03 00:15:05;;;;;;;10.57;7.77;;;;;;;3.87;99.19;102662.09;5034120;28;20036;-68
2024/03/03 00:17:31;;;;;;;10.83;7.17;;;;;;;3.61;99.59;102612.38;5032476;28;20132;-67
2024/03/03 00:19:56;;;;;;;13.10;8.00;;;;;;;3.76;99.39;102634.50;5041814;28;20036;-68
2024/03/03 00:22:22;;;;;;;12.23;7.03;;;;;;;3.90;99.31;102645.25;5046032;28;20045;-68
2024/03/03 00:24:47;;;;;;;10.90;7.00;;;;;;;4.04;99.36;102659.47;5036023;28;20064;-70
2024/03/03 00:27:14;;;;;;;13.20;7.57;;;;;;;4.03;98.31;102649.84;5043717;28;20088;-69
2024/03/03 00:29:40;;;;;;;9.53;6.80;;;;;;;4.00;97.87;102646.50;5031948;28;20132;-71
2024/03/03 00:32:06;;;;;;;11.07;7.20;;;;;;;4.02;98.37;102656.06;5040248;28;20700;-70
2024/03/03 00:34:32;;;;;;;11.07;8.10;;;;;;;3.96;98.35;102656.34;5041840;28;20063;-68
2024/03/03 00:36:57;;;;;;;11.10;8.00;;;;;;;3.97;99.20;102655.44;5041707;28;20291;-67
2024/03/03 00:39:23;;;;;;;12.17;6.90;;;;;;;3.78;99.33;102625.63;5036741;28;20106;-68
2024/03/03 00:41:48;;;;;;;11.17;8.03;;;;;;;3.63;99.41;102600.84;5039753;28;20037;-69
2024/03/03 00:44:14;;;;;;;11.37;7.37;;;;;;;3.91;99.67;102634.66;5041519;28;20631;-70
2024/03/03 00:46:39;;;;;;;10.40;7.37;;;;;;;3.88;99.00;102621.63;5038021;28;20052;-68
2024/03/03 00:49:05;;;;;;;8.90;7.23;;;;;;;3.84;98.52;102620.06;5051177;28;20045;-70
2024/03/03 00:51:31;;;;;;;8.97;7.23;;;;;;;3.95;99.71;102641.47;5048226;28;20126;-68
2024/03/03 00:53:56;;;;;;;9.67;7.47;;;;;;;4.04;98.61;102654.19;5050347;28;20126;-69
2024/03/03 00:56:22;;;;;;;10.97;7.77;;;;;;;4.10;98.33;102657.50;5046259;28;20146;-69
2024/03/03 00:58:47;;;;;;;13.27;8.00;;;;;;;4.04;98.06;102648.91;5049390;28;20037;-68
2024/03/03 01:01:14;;;;;;;12.90;7.17;;;;;;;3.96;98.42;102637.06;5045328;28;20127;-68
2024/03/03 01:03:40;;;;;;;13.63;8.57;;;;;;;3.99;98.39;102647.44;5049328;28;20041;-67
2024/03/03 01:06:06;;;;;;;11.97;8.77;;;;;;;3.85;98.24;102627.03;5040569;28;20652;-70
2024/03/03 01:08:32;;;;;;;8.77;7.10;;;;;;;3.88;99.04;102639.22;5047270;28;20284;-70
2024/03/03 01:10:57;;;;;;;8.97;7.43;;;;;;;3.96;99.38;102644.97;5050419;28;20036;-68
2024/03/03 01:13:23;;;;;;;12.30;8.20;;;;;;;4.01;99.18;102649.06;5044092;28;20103;-71
2024/03/03 01:15:49;;;;;;;11.57;8.80;;;;;;;3.97;98.41;102634.34;5042018;28;20041;-71
2024/03/03 01:18:14;;;;;;;11.47;8.17;;;;;;;4.08;98.68;102648.81;5047335;28;20039;-70
2024/03/03 01:20:40;;;;;;;11.57;7.83;;;;;;;3.87;98.52;102605.88;5045155;28;20048;-69
2024/03/03 01:23:06;;;;;;;13.00;8.77;;;;;;;3.53;98.29;102567.13;5050739;28;20412;-69
2024/03/03 01:25:31;;;;;;;15.13;9.30;;;;;;;3.58;98.75;102591.47;5040128;28;20439;-69
2024/03/03 01:27:59;;;;;;;15.20;9.30;;;;;;;3.80;99.61;102621.13;5030830;28;20060;-70
2024/03/03 01:30:25;;;;;;;11.73;8.65;;;;;;;3.92;99.54;102632.84;5041700;28;20223;-69
2024/03/03 01:32:51;;;;;;;12.20;9.07;;;;;;;3.90;99.36;102630.28;5051150;28;20449;-68
2024/03/03 01:35:20;;;;;;;16.80;9.43;;;;;;;3.86;99.31;102623.47;5048092;28;20055;-68
2024/03/03 01:37:45;;;;;;;13.97;9.23;;;;;;;3.97;99.40;102629.06;5055451;28;20294;-69
2024/03/03 01:40:12;;;;;;;12.70;9.87;;;;;;;3.65;98.31;102579.69;5045004;28;20307;-69
2024/03/03 01:42:38;;;;;;;16.53;10.43;;;;;;;3.87;98.95;102624.31;5045456;28;20053;-69
2024/03/03 01:45:04;;;;;;;15.37;10.20;;;;;;;3.89;99.79;102618.06;5047256;28;20294;-69
2024/03/03 01:47:31;;;;;;;21.13;10.20;;;;;;;3.86;99.21;102618.19;5055789;28;20404;-68
2024/03/03 01:49:58;;;;;;;22.70;11.63;;;;;;;3.71;99.33;102614.50;5046830;28;20271;-68
2024/03/03 01:52:25;;;;;;;19.97;11.80;;;;;;;3.80;99.92;102631.69;5046593;28;20339;-69
2024/03/03 01:54:51;;;;;;;14.93;9.50;;;;;;;3.77;99.81;102625.72;5045126;28;20287;-68
2024/03/03 01:57:19;;;;;;;16.90;9.60;;;;;;;3.76;100.00;102630.13;5046067;28;20331;-70
2024/03/03 01:59:45;;;;;;;16.57;9.77;;;;;;;3.76;100.00;102614.31;5053542;28;20436;-68
2024/03/03 02:02:11;;;;;;;15.17;9.73;;;;;;;3.87;100.00;102626.97;5043644;28;20403;-69
2024/03/03 02:04:37;;;;;;;17.30;10.93;;;;;;;3.82;99.40;102614.00;5047584;28;20063;-68
2024/03/03 02:07:03;;;;;;;13.57;10.37;;;;;;;3.71;99.99;102606.59;5047510;28;20294;-67
2024/03/03 02:09:29;;;;;;;22.07;10.17;;;;;;;3.63;99.25;102600.00;5051297;28;20291;-68
2024/03/03 02:11:56;;;;;;;16.97;11.73;;;;;;;3.67;99.79;102612.09;5047265;28;20034;-68
2024/03/03 02:14:21;;;;;;;13.40;9.77;;;;;;;3.71;100.00;102613.66;5046898;28;20106;-68
2024/03/03 02:16:47;;;;;;;14.37;9.47;;;;;;;3.65;100.00;102603.41;5036796;28;20284;-69
2024/03/03 02:19:13;;;;;;;12.63;9.73;;;;;;;3.54;100.00;102568.81;5024333;28;20042;-69
2024/03/03 02:21:38;;;;;;;11.57;8.43;;;;;;;3.68;99.90;102582.19;5049007;28;20041;-68
2024/03/03 02:24:04;;;;;;;10.70;7.60;;;;;;;3.81;99.88;102599.13;5046335;28;20041;-67
2024/03/03 02:26:31;;;;;;;11.77;9.00;;;;;;;3.67;99.61;102580.47;5051551;28;20095;-68
2024/03/03 02:28:57;;;;;;;13.73;9.17;;;;;;;3.42;99.96;102552.66;5044385;28;20047;-69
2024/03/03 02:31:25;;;;;;;14.13;9.43;;;;;;;3.66;100.00;102598.06;5040333;28;20363;-70
2024/03/03 02:33:51;;;;;;;12.35;9.25;;;;;;;3.08;100.00;102507.78;5048101;28;20149;-68
2024/03/03 02:36:17;;;;;;;15.47;9.60;;;;;;;3.43;100.00;102578.06;5040389;28;20033;-68
2024/03/03 02:38:46;;;;;;;12.47;8.67;;;;;;;3.48;100.00;102587.56;5048780;28;20048;-70
2024/03/03 02:41:11;;;;;;;15.53;10.37;;;;;;;3.51;100.00;102596.16;5033529;28;20048;-67
2024/03/03 02:43:37;;;;;;;15.97;10.40;;;;;;;3.45;100.00;102587.69;5044594;28;20304;-67
2024/03/03 02:46:03;;;;;;;15.03;9.83;;;;;;;3.56;100.00;102598.59;5042239;28;20052;-66
2024/03/03 02:48:28;;;;;;;19.33;10.57;;;;;;;3.58;100.00;102586.19;5043175;28;20443;-68
2024/03/03 02:50:54;;;;;;;17.33;10.47;;;;;;;3.59;100.00;102583.47;5047546;28;20045;-68
2024/03/03 02:53:19;;;;;;;17.37;10.57;;;;;;;3.60;100.00;102592.25;5040415;28;20493;-68
2024/03/03 02:55:45;;;;;;;13.93;9.83;;;;;;;3.64;100.00;102601.69;5041470;28;20091;-69
2024/03/03 02:58:10;;;;;;;16.87;11.20;;;;;;;3.65;100.00;102598.13;5049372;28;20416;-68
2024/03/03 03:00:36;;;;;;;21.67;12.37;;;;;;;3.58;100.00;102592.31;5039522;28;20037;-66
2024/03/03 03:03:02;;;;;;;17.80;11.80;;;;;;;3.53;100.00;102598.72;5045655;28;20045;-68
2024/03/03 03:05:27;;;;;;;18.60;12.17;;;;;;;3.44;100.00;102589.47;5043885;28;20040;-68
2024/03/03 03:07:53;;;;;;;18.10;11.67;;;;;;;3.22;100.00;102562.44;5047710;28;20072;-68
2024/03/03 03:10:20;;;;;;;20.97;12.30;;;;;;;3.28;100.00;102573.53;5035716;28;20037;-69
2024/03/03 03:12:46;;;;;;;24.17;13.30;;;;;;;3.24;100.00;102568.50;5038382;28;20048;-67
2024/03/03 03:15:12;;;;;;;19.17;13.20;;;;;;;3.25;100.00;102573.69;5040749;28;20276;-67
2024/03/03 03:17:37;;;;;;;22.03;13.47;;;;;;;3.32;100.00;102595.31;5043422;28;20033;-67
2024/03/03 03:20:04;;;;;;;22.27;14.77;;;;;;;3.29;100.00;102588.41;5039258;28;20056;-68
2024/03/03 03:22:30;;;;;;;22.07;14.03;;;;;;;3.29;100.00;102579.66;5039826;28;20578;-68
2024/03/03 03:24:55;;;;;;;21.10;14.50;;;;;;;3.33;100.00;102587.34;5040458;28;20272;-68
2024/03/03 03:27:22;;;;;;;23.70;13.90;;;;;;;3.21;100.00;102573.91;5045493;28;20053;-68
2024/03/03 03:29:48;;;;;;;19.20;14.17;;;;;;;3.22;100.00;102584.38;5043042;28;20416;-66
2024/03/03 03:32:13;;;;;;;25.03;16.37;;;;;;;3.13;100.00;102583.91;5042509;28;20271;-69
2024/03/03 03:34:39;;;;;;;24.13;14.30;;;;;;;3.19;100.00;102588.91;5041701;28;20116;-69
2024/03/03 03:37:05;;;;;;;22.20;13.90;;;;;;;2.96;100.00;102553.09;5048510;28;20040;-68
2024/03/03 03:39:30;;;;;;;26.47;16.50;;;;;;;2.93;100.00;102550.63;5042036;28;20037;-68
2024/03/03 03:41:57;;;;;;;29.27;16.93;;;;;;;3.01;100.00;102559.88;5038311;28;20120;-69
2024/03/03 03:44:23;;;;;;;25.07;16.50;;;;;;;3.17;100.00;102582.84;5046230;28;20040;-69
2024/03/03 03:46:48;;;;;;;24.43;16.63;;;;;;;3.25;100.00;102589.47;5026397;28;20290;-67
2024/03/03 03:49:14;;;;;;;28.97;17.17;;;;;;;3.32;100.00;102593.53;5042039;28;20557;-69
2024/03/03 03:51:40;;;;;;;25.43;17.00;;;;;;;3.19;100.00;102568.72;5042669;28;20040;-68
2024/03/03 03:54:07;;;;;;;23.60;17.00;;;;;;;3.33;100.00;102589.13;5049227;28;20501;-68
2024/03/03 03:56:33;;;;;;;29.00;16.33;;;;;;;3.05;100.00;102561.44;5044998;28;20361;-68
2024/03/03 03:58:59;;;;;;;27.47;17.77;;;;;;;3.17;100.00;102588.97;5048374;28;20279;-68
2024/03/03 04:01:27;;;;;;;26.97;18.27;;;;;;;2.68;100.00;102506.13;5043044;28;20374;-69
2024/03/03 04:03:56;;;;;;;30.50;19.75;;;;;;;3.26;100.00;102600.88;5049642;28;20040;-68
2024/03/03 04:06:26;;;;;;;30.07;20.03;;;;;;;3.23;100.00;102593.97;5039774;28;20037;-67
2024/03/03 04:08:52;;;;;;;30.27;19.50;;;;;;;2.83;100.00;102536.16;5049986;28;20291;-68
2024/03/03 04:11:19;;;;;;;33.80;21.33;;;;;;;3.13;100.00;102584.75;5047899;28;20375;-68
2024/03/03 04:13:48;;;;;;;34.43;21.37;;;;;;;3.22;100.00;102600.16;5045024;28;20282;-68
2024/03/03 04:16:14;;;;;;;33.93;21.03;;;;;;;3.07;100.00;102585.91;5044526;28;20707;-68
2024/03/03 04:18:40;;;;;;;35.87;21.97;;;;;;;3.00;100.00;102589.75;5038837;28;20311;-69
2024/03/03 04:21:06;;;;;;;37.00;21.70;;;;;;;2.87;100.00;102571.91;5041856;28;20347;-68
2024/03/03 04:23:32;;;;;;;32.90;21.00;;;;;;;2.92;100.00;102575.22;5040019;28;20087;-70
2024/03/03 04:25:57;;;;;;;35.17;23.37;;;;;;;2.84;100.00;102566.81;5042034;28;20140;-68
2024/03/03 04:28:24;;;;;;;32.97;21.33;;;;;;;2.94;100.00;102582.13;5032726;28;20705;-69
2024/03/03 04:30:50;;;;;;;33.00;21.37;;;;;;;3.09;100.00;102593.72;5033418;28;20056;-71
2024/03/03 04:33:16;;;;;;;32.00;21.03;;;;;;;3.00;100.00;102578.34;5045365;28;20276;-69
2024/03/03 04:35:44;;;;;;;34.97;21.20;;;;;;;3.01;100.00;102585.34;5043314;28;20279;-69
2024/03/03 04:38:10;;;;;;;33.28;21.25;;;;;;;2.84;100.00;102553.66;5047019;28;20037;-70
2024/03/03 04:40:35;;;;;;;38.90;22.67;;;;;;;2.94;100.00;102573.38;5045398;28;20045;-67
2024/03/03 04:43:01;;;;;;;41.10;23.70;;;;;;;3.15;100.00;102614.50;5035439;28;20042;-67
2024/03/03 04:45:26;;;;;;;40.07;22.43;;;;;;;3.07;100.00;102606.97;5041418;28;20045;-69
2024/03/03 04:47:52;;;;;;;41.97;25.93;;;;;;;2.98;100.00;102604.75;5040745;28;20148;-69
2024/03/03 04:50:19;;;;;;;41.67;23.80;;;;;;;2.88;100.00;102606.06;5015830;28;20048;-68
2024/03/03 04:52:44;;;;;;;41.67;23.50;;;;;;;2.93;100.00;102616.41;5041167;28;20037;-68
2024/03/03 04:55:10;;;;;;;43.43;25.10;;;;;;;2.72;100.00;102571.69;5039868;28;20847;-67
2024/03/03 04:57:36;;;;;;;37.10;23.13;;;;;;;2.94;100.00;102615.50;5044403;28;20037;-68
2024/03/03 05:00:07;;;;;;;40.77;23.33;;;;;;;2.95;100.00;102612.78;5049231;28;20110;-68
2024/03/03 05:02:34;;;;;;;41.63;25.83;;;;;;;2.97;100.00;102610.09;5040320;28;20488;-69
2024/03/03 05:04:59;;;;;;;35.67;23.07;;;;;;;2.79;100.00;102594.19;5040519;28;20267;-69
2024/03/03 05:07:26;;;;;;;37.13;24.27;;;;;;;2.76;100.00;102591.69;5037880;28;20260;-69
2024/03/03 05:09:51;;;;;;;46.03;22.60;;;;;;;2.91;100.00;102611.22;5034680;28;20094;-69
2024/03/03 05:12:17;;;;;;;44.67;23.37;;;;;;;2.97;100.00;102607.47;5044474;28;20421;-68
2024/03/03 05:14:43;;;;;;;40.77;24.37;;;;;;;3.02;100.00;102613.38;5038880;28;20041;-68
2024/03/03 05:17:08;;;;;;;39.53;24.33;;;;;;;2.90;100.00;102585.81;5041809;28;20037;-68
2024/03/03 05:19:34;;;;;;;40.93;23.87;;;;;;;2.94;100.00;102597.06;5042639;28;20425;-69
2024/03/03 05:21:59;;;;;;;44.27;24.07;;;;;;;2.78;100.00;102592.47;5038963;28;20049;-72
2024/03/03 05:24:25;;;;;;;45.13;24.73;;;;;;;2.77;100.00;102598.66;5042865;28;20044;-70
2024/03/03 05:26:53;;;;;;;37.83;25.13;;;;;;;2.76;100.00;102607.47;5036688;28;20095;-69
2024/03/03 05:29:19;;;;;;;41.67;25.23;;;;;;;2.78;100.00;102613.53;5046913;28;20049;-70
2024/03/03 05:31:45;;;;;;;48.37;26.73;;;;;;;2.68;100.00;102587.69;5032610;28;20148;-70
2024/03/03 05:34:15;;;;;;;37.87;24.93;;;;;;;2.82;100.00;102613.38;5035340;28;20832;-70
2024/03/03 05:36:41;;;;;;;56.37;28.33;;;;;;;2.81;100.00;102625.69;5068653;28;20046;-72
2024/03/03 05:39:08;;;;;;;41.27;24.90;;;;;;;2.60;100.00;102590.66;5040527;28;20302;-68
2024/03/03 05:41:34;;;;;;;41.87;25.10;;;;;;;2.83;100.00;102607.19;5034568;28;20383;-69
2024/03/03 05:44:00;;;;;;;38.73;24.70;;;;;;;2.88;100.00;102598.16;5039210;28;20685;-68
2024/03/03 05:46:25;;;;;;;48.13;27.30;;;;;;;3.05;100.00;102619.34;5040776;28;20041;-71
2024/03/03 05:48:51;;;;;;;43.53;26.47;;;;;;;2.87;100.00;102587.72;5037413;28;20037;-69
2024/03/03 05:51:17;;;;;;;40.80;27.30;;;;;;;2.74;100.00;102588.28;5024066;28;20385;-70
2024/03/03 05:53:42;;;;;;;50.57;28.87;;;;;;;2.89;100.00;102612.19;5037953;28;20029;-71
2024/03/03 05:56:12;;;;;;;46.70;27.97;;;;;;;2.63;100.00;102580.00;5031680;28;20041;-71
2024/03/03 05:58:38;;;;;;;49.77;27.07;;;;;;;2.74;100.00;102601.44;5042652;28;20037;-69
2024/03/03 06:01:04;;;;;;;46.73;28.33;;;;;;;2.80;100.00;102605.56;5035228;28;20296;-69
2024/03/03 06:03:29;;;;;;;50.53;28.93;;;;;;;2.89;100.00;102606.91;5034607;28;20041;-69
2024/03/03 06:05:55;;;;;;;51.00;28.30;;;;;;;3.04;100.00;102612.38;5035048;28;20669;-69
2024/03/03 06:08:21;;;;;;;54.40;28.20;;;;;;;3.05;100.00;102589.53;5037430;28;20077;-71
2024/03/03 06:10:46;;;;;;;53.87;29.87;;;;;;;3.18;100.00;102611.75;5035834;28;20432;-68
2024/03/03 06:13:12;;;;;;;45.53;28.63;;;;;;;3.05;100.00;102594.78;5039349;28;20037;-71
2024/03/03 06:15:40;;;;;;;43.77;27.00;;;;;;;3.03;100.00;102602.75;5035867;28;20044;-69
2024/03/03 06:18:06;;;;;;;42.60;26.30;;;;;;;3.20;100.00;102614.31;5034768;28;20041;-69
2024/03/03 06:20:32;;;;;;;43.80;27.70;;;;;;;3.14;100.00;102601.41;5040536;28;20057;-69
2024/03/03 06:22:58;;;;;;;46.53;29.03;;;;;;;2.95;100.00;102575.09;5044108;28;20295;-71
2024/03/03 06:25:23;;;;;;;50.83;29.63;;;;;;;3.21;100.00;102619.53;5042207;28;20108;-69
2024/03/03 06:27:49;;;;;;;51.43;30.73;;;;;;;2.98;100.00;102577.56;5039379;28;20091;-70
2024/03/03 06:30:17;;;;;;;48.17;28.90;;;;;;;3.18;100.00;102609.13;5033636;28;20424;-69
2024/03/03 06:32:43;;;;;;;51.72;29.80;;;;;;;3.27;100.00;102618.38;5034508;28;20068;-69
2024/03/03 06:35:12;;;;;;;50.27;30.90;;;;;;;3.17;100.00;102609.16;5041519;28;20445;-70
2024/03/03 06:37:38;;;;;;;48.27;31.33;;;;;;;2.90;100.00;102553.41;5043609;28;20053;-69
2024/03/03 06:40:05;;;;;;;51.27;30.53;;;;;;;3.06;100.00;102588.59;5045277;28;20265;-68
2024/03/03 06:42:33;;;;;;;50.70;29.10;;;;;;;3.23;100.00;102617.66;5046663;28;20345;-69
2024/03/03 06:45:00;;;;;;;49.85;30.23;;;;;;;3.24;100.00;102602.72;5039482;28;20278;-72
2024/03/03 06:47:29;;;;;;;53.60;30.97;;;;;;;3.36;100.00;102625.84;5043520;28;20041;-69
2024/03/03 06:49:54;;;;;;;52.78;31.90;;;;;;;3.06;100.00;102591.25;5041342;28;20659;-71
2024/03/03 06:52:21;;;;;;;54.67;32.73;;;;;;;3.19;100.00;102631.91;5044157;28;20056;-70
2024/03/03 06:54:47;;;;;;;55.13;31.57;;;;;;;3.26;100.00;102638.59;5044783;28;20055;-70
2024/03/03 06:57:14;;;;;;;50.50;33.00;;;;;;;3.24;100.00;102640.44;5047027;28;20303;-68
2024/03/03 06:59:40;;;;;;;57.37;32.13;;;;;;;3.21;100.00;102643.22;5042636;28;20260;-70
2024/03/03 07:02:06;;;;;;;52.93;32.43;;;;;;;3.11;100.00;102621.69;5021750;28;20278;-72
2024/03/03 07:04:31;;;;;;;55.17;33.77;;;;;;;3.35;100.00;102635.53;5020259;28;20289;-69
2024/03/03 07:06:57;;;;;;;52.07;31.60;;;;;;;3.49;100.00;102636.69;5042002;28;20490;-70
2024/03/03 07:09:24;;;;;;;50.80;30.50;;;;;;;3.53;100.00;102625.06;5036145;28;20037;-72
2024/03/03 07:11:51;;;;;;;53.33;31.77;;;;;;;3.64;100.00;102638.59;5021856;28;20383;-76
2024/03/03 07:14:17;;;;;;;55.23;32.47;;;;;;;3.38;100.00;102595.03;5046205;28;20624;-74
2024/03/03 07:16:43;;;;;;;50.30;30.20;;;;;;;3.72;100.00;102639.06;5047384;28;20283;-72
2024/03/03 07:19:08;;;;;;;55.63;32.53;;;;;;;3.63;100.00;102616.66;5034596;28;20276;-74
2024/03/03 07:21:34;;;;;;;53.90;31.43;;;;;;;3.74;100.00;102639.84;5036359;28;20556;-71
2024/03/03 07:24:00;;;;;;;53.93;32.30;;;;;;;3.74;100.00;102645.13;5049488;28;20096;-73
2024/03/03 07:26:28;;;;;;;55.07;34.23;;;;;;;3.56;100.00;102622.28;5049088;28;20372;-72
2024/03/03 07:28:54;;;;;;;52.88;31.83;;;;;;;3.49;100.00;102623.50;5041203;28;20095;-70
2024/03/03 07:31:19;;;;;;;54.70;33.13;;;;;;;3.52;100.00;102626.00;5044325;28;20037;-73
2024/03/03 07:33:45;;;;;;;50.60;32.17;;;;;;;3.41;100.00;102601.00;5017162;28;20394;-70
2024/03/03 07:36:10;;;;;;;56.17;32.80;;;;;;;3.60;100.00;102615.94;5037636;28;20079;-71
2024/03/03 07:38:37;;;;;;;51.27;32.47;;;;;;;3.61;100.00;102617.66;5043869;28;20060;-68
2024/03/03 07:41:03;;;;;;;53.93;31.53;;;;;;;3.62;100.00;102629.91;5018696;28;20438;-71
2024/03/03 07:43:29;;;;;;;55.37;33.00;;;;;;;3.72;100.00;102641.72;5034482;28;20342;-70
2024/03/03 07:45:55;;;;;;;49.30;32.00;;;;;;;3.77;100.00;102630.97;5037899;28;20492;-69
2024/03/03 07:48:21;;;;;;;54.97;31.77;;;;;;;3.86;100.00;102625.25;5018571;28;20365;-71
2024/03/03 07:50:47;;;;;;;58.40;33.23;;;;;;;3.83;100.00;102622.78;5011843;28;20842;-69
2024/03/03 07:53:13;;;;;;;55.57;34.17;;;;;;;3.76;100.00;102632.75;5033596;28;20393;-72
2024/03/03 07:55:38;;;;;;;61.30;34.97;;;;;;;3.88;100.00;102647.97;5037312;28;20491;-70
2024/03/03 07:58:06;;;;;;;58.77;32.80;;;;;;;3.97;100.00;102647.53;5036188;28;20045;-70
2024/03/03 08:00:35;;;;;;;52.55;31.13;;;;;;;3.89;100.00;102623.31;5016358;28;20168;-70
2024/03/03 08:03:05;;;;;;;56.58;33.72;;;;;;;3.74;100.00;102608.22;5038479;28;20124;-72
2024/03/03 08:05:34;;;;;;;50.43;30.87;;;;;;;3.93;100.00;102627.50;5032108;28;20103;-72
2024/03/03 08:08:01;;;;;;;51.90;29.83;;;;;;;4.09;100.00;102632.91;5032877;28;20295;-69
2024/03/03 08:10:27;;;;;;;48.10;31.80;;;;;;;4.27;100.00;102646.94;5041835;28;20783;-71
2024/03/03 08:12:53;;;;;;;51.53;31.23;;;;;;;4.12;99.63;102618.72;5032784;28;20294;-72
2024/03/03 08:15:19;;;;;;;55.37;32.60;;;;;;;4.37;99.37;102647.38;5029748;28;20046;-71
2024/03/03 08:17:45;;;;;;;53.90;32.23;;;;;;;4.22;99.02;102614.69;5034183;28;20632;-70
2024/03/03 08:20:11;;;;;;;49.13;30.33;;;;;;;4.10;99.09;102637.25;5031540;28;20029;-71
2024/03/03 08:22:41;;;;;;;49.03;31.13;;;;;;;4.11;100.00;102640.75;5030517;28;20094;-70
2024/03/03 08:25:09;;;;;;;56.50;31.27;;;;;;;4.03;100.00;102609.44;5033291;28;20268;-71
2024/03/03 08:27:36;;;;;;;56.90;32.70;;;;;;;4.14;100.00;102611.59;5041301;28;20644;-69
2024/03/03 08:30:05;;;;;;;46.73;30.53;;;;;;;4.29;99.16;102635.41;5034028;28;20056;-68
2024/03/03 08:32:32;;;;;;;49.92;30.00;;;;;;;4.23;99.14;102624.31;5036076;28;20272;-74
2024/03/03 08:35:00;;;;;;;47.63;30.40;;;;;;;4.15;99.22;102621.19;5034434;28;20033;-71
2024/03/03 08:37:26;;;;;;;44.58;29.98;;;;;;;4.23;99.43;102627.78;5033619;28;20275;-68
2024/03/03 08:39:52;;;;;;;47.87;30.07;;;;;;;4.29;99.33;102630.13;5043426;28;20417;-71
2024/03/03 08:42:17;;;;;;;44.57;29.47;;;;;;;4.21;99.29;102599.78;5041504;28;20145;-70
2024/03/03 08:44:43;;;;;;;50.93;30.90;;;;;;;4.13;98.81;102637.09;5029869;28;20041;-71
2024/03/03 08:47:09;;;;;;;48.27;31.30;;;;;;;4.19;99.13;102626.25;5039106;28;20465;-71
2024/03/03 08:49:34;;;;;;;44.00;28.67;;;;;;;4.20;99.61;102627.09;5035464;28;20040;-72
2024/03/03 08:52:05;;;;;;;47.53;29.77;;;;;;;4.28;98.83;102593.28;5016470;28;20037;-73
2024/03/03 08:54:31;;;;;;;44.13;30.40;;;;;;;4.37;97.51;102608.66;5030968;28;20037;-71
2024/03/03 08:56:59;;;;;;;45.30;28.97;;;;;;;4.07;98.32;102552.19;5038028;28;20290;-71
2024/03/03 08:59:25;;;;;;;45.53;30.42;;;;;;;4.35;97.54;102605.25;5035949;28;20060;-69
2024/03/03 09:01:51;;;;;;;47.97;30.93;;;;;;;4.21;98.42;102618.25;5036735;28;20695;-68
2024/03/03 09:04:17;;;;;;;48.50;30.07;;;;;;;4.09;99.31;102609.19;5036077;28;20449;-72
2024/03/03 09:06:42;;;;;;;51.60;34.17;;;;;;;4.21;99.54;102624.38;5019792;28;20499;-68
2024/03/03 09:09:12;;;;;;;49.43;29.67;;;;;;;4.31;99.09;102625.63;5041183;28;20065;-69
2024/03/03 09:11:40;;;;;;;51.43;30.53;;;;;;;4.33;98.57;102618.47;5049357;28;20045;-67
2024/03/03 09:14:06;;;;;;;46.23;31.17;;;;;;;4.35;97.83;102615.78;5046607;28;20307;-67
2024/03/03 09:16:32;;;;;;;49.63;29.47;;;;;;;4.46;97.69;102631.91;5031642;28;20129;-70
2024/03/03 09:18:59;;;;;;;48.60;29.90;;;;;;;4.33;97.11;102594.75;5038274;28;20070;-69
2024/03/03 09:21:24;;;;;;;47.73;28.90;;;;;;;4.15;96.97;102576.38;5038131;28;20284;-69
2024/03/03 09:23:53;;;;;;;45.07;30.77;;;;;;;4.41;97.38;102612.84;5040332;28;20299;-70
2024/03/03 09:26:20;;;;;;;43.63;28.08;;;;;;;4.43;97.63;102608.34;5041333;28;20053;-70
2024/03/03 09:28:46;;;;;;;48.43;28.60;;;;;;;4.38;98.00;102598.97;5040585;28;20037;-73
2024/03/03 09:31:11;;;;;;;47.70;29.83;;;;;;;4.46;96.46;102587.06;5046426;28;20288;-71
2024/03/03 09:33:38;;;;;;;45.17;29.73;;;;;;;4.56;95.78;102619.97;5046626;28;20033;-72
2024/03/03 09:36:06;;;;;;;47.47;27.93;;;;;;;4.55;96.67;102606.84;5047419;28;20040;-71
2024/03/03 09:38:31;;;;;;;58.40;29.23;;;;;;;4.66;95.41;102621.22;5044986;28;20294;-68
2024/03/03 09:40:57;;;;;;;43.97;28.10;;;;;;;4.57;94.72;102619.03;5045315;28;20288;-67
2024/03/03 09:43:27;;;;;;;47.43;27.80;;;;;;;4.28;95.41;102562.47;5041333;28;20403;-68
2024/03/03 09:45:53;;;;;;;48.63;29.63;;;;;;;4.66;96.09;102618.56;5041670;28;20029;-73
2024/03/03 09:48:21;;;;;;;47.37;27.77;;;;;;;4.71;95.59;102612.19;5026333;28;20355;-71
2024/03/03 09:50:49;;;;;;;46.73;28.60;;;;;;;4.75;93.63;102597.91;5044369;28;20137;-70
2024/03/03 09:53:15;;;;;;;54.70;29.17;;;;;;;4.77;93.89;102602.16;5072649;28;20037;-69
2024/03/03 09:55:44;;;;;;;40.37;28.03;;;;;;;4.80;94.47;102601.16;5044752;28;20040;-69
2024/03/03 09:58:11;;;;;;;44.50;27.37;;;;;;;5.02;93.77;102614.09;5049756;28;20473;-71
2024/03/03 10:00:37;;;;;;;48.30;28.13;;;;;;;4.92;92.77;102584.69;5053341;28;20037;-72
2024/03/03 10:03:06;;;;;;;45.03;29.43;;;;;;;5.03;91.72;102598.16;5048010;28;20320;-72
2024/03/03 10:05:34;;;;;;;40.03;26.48;;;;;;;5.05;91.46;102591.00;5068222;28;20041;-74
2024/03/03 10:08:04;;;;;;;38.63;28.00;;;;;;;4.89;91.74;102555.78;5045651;28;20045;-71
2024/03/03 10:10:33;;;;;;;46.67;27.33;;;;;;;5.14;90.44;102594.94;5048830;28;20033;-69
2024/03/03 10:13:11;;;;;;;43.10;27.97;;;;;;;5.27;90.97;102617.97;5046128;28;20409;-67
2024/03/03 10:15:41;;;;;;;46.73;28.23;;;;;;;5.02;89.93;102580.59;5037871;28;20037;-69
2024/03/03 10:18:11;;;;;;;40.47;26.67;;;;;;;5.15;90.06;102609.84;5043257;28;20292;-71
2024/03/03 10:20:36;;;;;;;47.87;28.17;;;;;;;5.11;90.45;102603.88;5037275;28;20311;-73
2024/03/03 10:23:02;;;;;;;43.63;27.83;;;;;;;5.09;90.48;102597.81;5018691;28;20075;-69
2024/03/03 10:25:30;;;;;;;41.47;28.77;;;;;;;4.94;90.36;102585.47;5039872;28;20041;-70
2024/03/03 10:28:10;;;;;;;47.60;27.47;;;;;;;4.89;90.79;102598.03;5044645;28;20401;-70
2024/03/03 10:30:36;;;;;;;46.57;28.00;;;;;;;4.81;90.86;102579.94;5036798;28;20091;-69
2024/03/03 10:33:06;;;;;;;47.60;28.20;;;;;;;4.64;91.18;102533.34;5035217;28;20041;-70
2024/03/03 10:35:32;;;;;;;42.90;27.43;;;;;;;5.08;90.57;102582.91;5039983;28;20090;-69
2024/03/03 10:37:59;;;;;;;55.53;36.50;;;;;;;5.18;90.12;102588.53;5030266;28;20116;-69
2024/03/03 10:40:25;;;;;;;52.00;32.77;;;;;;;5.25;89.66;102556.44;5039320;28;20040;-70
2024/03/03 10:42:51;;;;;;;45.57;29.47;;;;;;;5.57;88.86;102596.94;5038821;28;20094;-69
2024/03/03 10:45:17;;;;;;;48.10;28.93;;;;;;;5.42;87.95;102594.28;5049655;28;20091;-71
2024/03/03 10:47:43;;;;;;;41.07;27.27;;;;;;;5.27;86.84;102573.06;5039090;28;20038;-74
2024/03/03 10:50:16;;;;;;;44.73;28.90;;;;;;;5.38;87.19;102587.47;5037470;28;20071;-70
2024/03/03 10:56:02;;;;;;;45.93;27.93;;;;;;;5.80;85.93;102590.38;5034579;28;20048;-68
2024/03/03 10:58:30;;;;;;;40.77;27.00;;;;;;;5.63;84.63;102550.81;5034795;28;20052;-69
2024/03/03 11:00:57;;;;;;;49.27;29.20;;;;;;;5.78;83.83;102576.38;5033883;28;20175;-71
2024/03/03 11:03:24;;;;;;;40.70;27.97;;;;;;;5.50;84.81;102561.22;5035276;28;20045;-71
2024/03/03 11:05:51;;;;;;;40.20;25.67;;;;;;;5.66;83.53;102571.78;5038785;28;20044;-69
2024/03/03 11:08:19;;;;;;;42.67;28.27;;;;;;;5.79;85.03;102578.09;5018337;28;20422;-71
2024/03/03 11:10:44;;;;;;;44.97;28.10;;;;;;;6.04;84.74;102584.63;5025267;28;20485;-70
2024/03/03 11:13:12;;;;;;;47.27;26.13;;;;;;;6.20;83.66;102574.84;5032314;28;20051;-72